DLH370 EDDH-EDLP
Flight info
| Callsign | DLH370 |
|---|---|
| Flight time | N/A |
| Altitude | 19000 |
| Route | IDEKO8C IDEKO N850 ROBEG Q208 PAD DCT |
| Aircraft | A20N/M-SDE2E3FGHIRWXY/LB1 |
Departure
| Time | 2026-04-20 20:59 |
|---|---|
| Airport | Hamburg Helmut Schmidt Airport (EDDH) |
Arrival
| Time | N/A |
|---|---|
| Airport | Paderborn Lippstadt Airport (EDLP) |
| Time | Latitude | Longitude | Altitude | Speed | Heading |
|---|---|---|---|---|---|
| 2026-04-20 20:19 | 53.63418 | 10.00345 | 51 ft | 0 kts | 99° |
| 2026-04-20 20:47 | 53.63420 | 10.00331 | 51 ft | 2 kts | 91° |
| 2026-04-20 20:48 | 53.63419 | 10.00304 | 51 ft | 2 kts | 80° |
| 2026-04-20 20:48 | 53.63415 | 10.00277 | 51 ft | 2 kts | 62° |
| 2026-04-20 20:48 | 53.63406 | 10.00254 | 47 ft | 2 kts | 40° |
| 2026-04-20 20:48 | 53.63392 | 10.00239 | 46 ft | 2 kts | 22° |
| 2026-04-20 20:49 | 53.63376 | 10.00230 | 48 ft | 2 kts | 8° |
| 2026-04-20 20:49 | 53.63365 | 10.00228 | 45 ft | 1 kts | 359° |
| 2026-04-20 20:49 | 53.63363 | 10.00228 | 45 ft | 0 kts | 358° |
| 2026-04-20 20:51 | 53.63369 | 10.00227 | 46 ft | 4 kts | 353° |
| 2026-04-20 20:52 | 53.63418 | 10.00211 | 48 ft | 9 kts | 338° |
| 2026-04-20 20:52 | 53.63440 | 10.00106 | 51 ft | 12 kts | 257° |
| 2026-04-20 20:52 | 53.63386 | 9.99980 | 50 ft | 15 kts | 231° |
| 2026-04-20 20:52 | 53.63308 | 9.99819 | 49 ft | 20 kts | 230° |
| 2026-04-20 20:53 | 53.63204 | 9.99634 | 48 ft | 24 kts | 228° |
| 2026-04-20 20:53 | 53.63113 | 9.99437 | 48 ft | 11 kts | 237° |
| 2026-04-20 20:53 | 53.63099 | 9.99401 | 47 ft | 0 kts | 238° |
| 2026-04-20 20:53 | 53.63098 | 9.99397 | 47 ft | 2 kts | 238° |
| 2026-04-20 20:54 | 53.63077 | 9.99345 | 47 ft | 9 kts | 236° |
| 2026-04-20 20:54 | 53.63021 | 9.99221 | 47 ft | 17 kts | 231° |
| 2026-04-20 20:54 | 53.62926 | 9.99030 | 47 ft | 25 kts | 230° |
| 2026-04-20 20:54 | 53.62801 | 9.98775 | 46 ft | 31 kts | 231° |
| 2026-04-20 20:55 | 53.62657 | 9.98483 | 45 ft | 34 kts | 231° |
| 2026-04-20 20:55 | 53.62514 | 9.98193 | 45 ft | 29 kts | 229° |
| 2026-04-20 20:55 | 53.62380 | 9.97980 | 44 ft | 27 kts | 224° |
| 2026-04-20 20:55 | 53.62249 | 9.97725 | 43 ft | 30 kts | 230° |
| 2026-04-20 20:56 | 53.62111 | 9.97444 | 42 ft | 32 kts | 231° |
| 2026-04-20 20:56 | 53.61965 | 9.97145 | 41 ft | 34 kts | 230° |
| 2026-04-20 20:56 | 53.61806 | 9.96827 | 41 ft | 36 kts | 230° |
| 2026-04-20 20:56 | 53.61671 | 9.96530 | 37 ft | 26 kts | 256° |
| 2026-04-20 20:57 | 53.61774 | 9.96418 | 41 ft | 20 kts | 4° |
| 2026-04-20 20:57 | 53.61871 | 9.96469 | 41 ft | 0 kts | 44° |
| 2026-04-20 20:59 | 53.61973 | 9.96673 | 41 ft | 62 kts | 49° |
| 2026-04-20 20:59 | 53.62431 | 9.97594 | 50 ft | 138 kts | 50° |
| 2026-04-20 20:59 | 53.63101 | 9.98977 | 545 ft | 163 kts | 52° |
| 2026-04-20 20:59 | 53.63826 | 10.00491 | 1558 ft | 167 kts | 53° |
| 2026-04-20 21:00 | 53.64325 | 10.01479 | 2342 ft | 168 kts | 54° |
| 2026-04-20 21:00 | 53.65120 | 10.03062 | 3148 ft | 184 kts | 54° |
| 2026-04-20 21:00 | 53.65954 | 10.04750 | 4079 ft | 191 kts | 53° |
| 2026-04-20 21:00 | 53.67102 | 10.07080 | 5144 ft | 197 kts | 53° |
| 2026-04-20 21:01 | 53.67698 | 10.08294 | 5654 ft | 200 kts | 53° |
| 2026-04-20 21:01 | 53.68782 | 10.09821 | 6419 ft | 211 kts | 29° |
| 2026-04-20 21:01 | 53.70255 | 10.10261 | 7172 ft | 225 kts | 358° |
| 2026-04-20 21:01 | 53.71721 | 10.09280 | 7901 ft | 239 kts | 326° |
| 2026-04-20 21:02 | 53.72780 | 10.07055 | 8661 ft | 250 kts | 302° |
| 2026-04-20 21:02 | 53.73582 | 10.04357 | 9417 ft | 266 kts | 298° |
| 2026-04-20 21:02 | 53.74415 | 10.01328 | 9570 ft | 297 kts | 297° |